Hovedside
METAR-TAF:

METAR-TAF

Lufthavner :

Port of Spain, Trinidad, Trinidad og Tobago

breddegrad: 10-37N, lengdegrad: 061-21W, høyde over havet: 12 m

Gjeldene værobservasjon

Denne rapporten ble laget for 1 time og 0 minutter siden, klokken 10:00 UTC
Flau vind
Temperatur 24°C
Luftfuktighet 89%
Trykk 1013 hPa
Sikt 10 km eller mer
Få skyer i en høyde av 1600 ft

METAR: TTPP 261000Z 00000KT 9999 FEW016 24/22 Q1013 NOSIG

Tid: 07:00 (11:00 UTC)

Varsel

Denne rapporten ble laget for 7 timer og 0 minutter siden, klokken 04:00 UTC
Varsel gyldig fra 26. klokken 06 UTC til 27. klokken 06 UTC
Vind kt fra Nord
Sikt 10 km eller mer
Få skyer i en høyde av 1600 ft
Blir
fra 26. klokken 12 UTC til 26. klokken 14 UTC
Vind 15 kt fra Øst
Blir
fra 27. klokken 00 UTC til 27. klokken 02 UTC
Vind 5 kt fra Øst

TAF: TTPP 260400Z 2606/2706 00000KT 9999 FEW016 BECMG 2612/2614 09015KT BECMG 2700/2702 09005KT

Værobservasjoner og værvarsel for over 4000 flyplasser (METAR- og TAF-rapporter).

Tilgjengelige stasjoner er representert av de røde og gule prikkene på kartet.

Hold musepekeren over prikken for å se navnet på stasjonen.

Klikk så for å se værobservasjoner og -varsler.

For å forandre kartet kan du klikke på den grønne knappen med svart kryss for å zoome inn, på den grønne knappen med strek for å zoome ut, eller på de grønne pilene for å se tilstøtende kart.


METAR-TAF: